Relevés horaires Bierset (Belgique)


Relevés horaires à Bierset - Mardi 10 Déc. 2019
Heure UTC1 Température [°C] Vent [km/h] Hum. [%] Pres.4 [hPa] Visi. [Km] Nébu. [octa] Préc.5 [mm] Cond.
2m. Res. Ros. Dir.2 Vit. Moy. Raf.3
23:00 5.2 1.7 -1.5 S 16.7 20.4 27.8 62 1014.5(-2.5/3h) 45 7/8 -- --
22:00 4.9 1.1 -1.2 S 18.5 20.4 29.6 65 1015.3(-2.4/3h) 40 7/8 -- --
21:00 5.0 1 -1.1 S 20.4 22.2 31.5 65 1015.9(-2.9/3h) 40 7/8 -- --
20:00 4.7 0.9 -0.2 S 18.5 22.2 31.5 70 1017.1(-2.4/3h) 30 5/8 -- --
19:00 4.5 0.4 -0.2 S 20.4 20.4 29.6 71 1017.8(-2.9/3h) 22 5/8 -- --
18:00 4.3 0.4 -0.1 S 18.5 18.5 29.6 73 1018.9(-3.1/3h) 22 7/8 0/12h
--
17:00 3.8 0.3 0.1 S 14.8 16.7 24.1 77 1019.6(-3.4/3h) 22 7/8 -- --
16:00 3.5 -0.1 -0.2 S 14.8 16.7 24.1 77 1020.8(-3.6/3h) 22 7/8 -- --
15:00 3.4 -0.5 0.1 S 16.7 18.5 25.9 79 1022.2(-3.2/3h) 22 7/8 -- --
14:00 4.3 0.9 0.5 SSO 14.8 18.5 25.9 76 1023(-3.5/3h) 22 5/8 -- --
13:00 4.3 0.6 0.8 S 16.7 16.7 22.2 78 1024.5(-2.6/3h) 10 4/8 -- --
12:00 3.7 0.2 1.0 SSO 14.8 14.8 20.4 82 1025.4(-1.8/3h) 10 4/8 0/6h
--
11:00 3.6 0.7 1.3 SSO 11.1 11.1 16.7 85 1026.6(-0.7/3h) 10 4/8 -- --
10:00 2.5 -0.2 1.0 S 9.3 9.3 14.8 90 1027.3(0.4/3h) 10 4/8 -- --
09:00 1.7 -0.6 0.5 S 7.4 9.3 13.0 92 1027.4(0.8/3h) 8 3/8 -- --
08:00 1.2 -1.1 0.2 SSE 7.4 9.3 13.0 93 1027.6(1.2/3h) 8 2/8 -- --
07:00 1.8 -1 0.9 SO 9.3 9.3 13.0 94 1027(0.8/3h) 9 3/8 -- --
06:00 1.2 -1.1 0.5 SO 7.4 7.4 11.1 95 1026.6(0.6/3h) 11 1/8 0.3/12h
--
05:00 1.0 -1.4 0.4 SO 7.4 7.4 9.3 96 1026.4(0.9/3h) 14 2/8 -- --
04:00 2.2 0.7 1.2 O 5.6 7.4 9.3 93 1026.1(1.7/3h) 14 4/8 -- --
03:00 2.2 0.7 1.4 O 5.6 7.4 11.1 94 1025.9(2.2/3h) 14 4/8 -- --
02:00 2.2 0 1.3 O 7.4 7.4 9.3 94 1025.4(2.5/3h) 14 4/8 -- --
01:00 2.1 0.5 1.1 O 5.6 7.4 11.1 93 1024.4(2.6/3h) 14 4/8 -- --
00:00 3.5 1.5 1.9 ONO 7.4 11.1 18.5 89 1023.6(3.2/3h) 14 5/8 0.3/6h
6.7/24h
--

1 Coordinated Universal Time. Actuellement il est 21:00 locale et 19:00 UTC.

2 Le vent souffle depuis la direction indiquée vers la direction oposée.

3 Les rafales max. sont disponible 40 min après l'heure du relevé.

4 Pour les stations d'altitude (plus de 600m) le géopotentiel du niveau le plus proche de la pression obligatoire est indiqué.

5 Les stations disposant d'un diffuseur peuvent indiquer "trace". Cela signifie que des précipitations ont touchés le sol mais que la quantité est inférieure à 0.1 mm.

Récapitulatif de la journée
Température [°C] Vent [km/h] Ensoleillement4 [h] Precipitations totale5 [mm] Pression [Hpa]
Min1 Max.2 Moy.3 Max. Min Max.
1.0 4.4 13.7 31.5 0 h 0 min 0 1014.5 1027.6

1 Température minimale relevée entre 18:00 UTC la veille et 18:00 UTC le jour donné.

2 Température maximale relevée entre 06:00 UTC le jour donné et 06:00 UTC le lendemain.

3 Vent moyen de la journée basé sur les relevés horaires.

4 Ensoleillement en heures relevé entre 06:00 UTC la veille et 06:00 UTC le jour donné.

5 Précipitations totales tombées entre 06:00 UTC la jour donné et 06:00 UTC le lendemain.

Graphiques horaires